ハルツーム の空港の天気 - METARとTAF

ハルツーム国際空港 ( HSSS / KRT ) - スーダン ハルツーム
飛行場実況気象(Metar)
観測時間10/16 09:30 CAT (10/16 07:30 UTC)
風向・風速北 4m/s
視程10km以上
天気現象
なし
気温35℃
湿度32%
気圧1011hPa
METARHSSS 160730Z 36008KT CAVOK 35/16 Q1011 NOSIG
過去の天気等 Google飛行場航空写真 Wunderground天気予報

過去48時間のMETAR

飛行場予報(TAF)
発表時間: 10/16 07:00 CAT (10/16 05:00 UTC)
予報対象時間: 16日8時 CAT ~ 17日14時 CAT
風向・風速不定 2m/s
視程8000m
全天の4割程度の雲 雲底高度 4270m
16日13時 CAT ~ 16日17時 CAT に一時的に
風向・風速西南西 5m/s 瞬間風速 11m/s
視程10km以上
全天の4割程度の雲 雲底高度 1220m
全天の4割程度の雲 雲底高度 4270m
TAF HSSS 160500Z 1606/1712 VRB03KT 8000 SCT140
TEMPO 1611/1615 24010G22KT 9999 SCT040 SCT140